Time;durP1;ratioP1;P1;durP2;ratioP2;P2;SDS_P1;SDS_P2;PMS_P1;PMS_P2;Temp;Humidity;BMP_temperature;BMP_pressure;BME280_temperature;BME280_humidity;BME280_pressure;Samples;Min_cycle;Max_cycle;Signal;HPM_P1;HPM_P2
2023/02/01 00:00:45;;;;;;;;;;;;;;;1.40;66.97;94703.88;4143674;28;19944;-63
2023/02/01 00:02:46;;;;;;;;;;;;;;;1.29;66.72;94706.34;4134950;28;20422;-64
2023/02/01 00:04:48;;;;;;;;;;;;;;;1.31;66.73;94704.50;4143656;28;19952;-63
2023/02/01 00:06:49;;;;;;;;;;;;;;;1.25;66.48;94717.78;4139016;28;20411;-63
2023/02/01 00:08:54;;;;;;;;;;;;;;;1.18;66.99;94710.50;4136381;28;20009;-63
2023/02/01 00:11:03;;;;;;;;;;;;;;;1.22;67.20;94711.91;4144974;28;20402;-63
2023/02/01 00:13:04;;;;;;;;;;;;;;;1.31;66.81;94715.66;4131100;28;19944;-63
2023/02/01 00:15:06;;;;;;;;;;;;;;;1.36;66.60;94717.94;4131673;28;19961;-61
2023/02/01 00:17:08;;;;;;;;;;;;;;;1.37;66.42;94716.97;4133344;28;19921;-62
2023/02/01 00:19:10;;;;;;;;;;;;;;;1.42;65.92;94715.75;4130884;28;20422;-61
2023/02/01 00:21:12;;;;;;;;;;;;;;;1.38;66.01;94716.06;4146934;28;19922;-64
2023/02/01 00:23:14;;;;;;;;;;;;;;;1.29;66.01;94717.53;4138211;28;20335;-60
2023/02/01 00:25:15;;;;;;;;;;;;;;;1.26;65.97;94711.72;4115013;28;19976;-63
2023/02/01 00:27:20;;;;;;;;;;;;;;;1.22;66.15;94708.50;4109578;28;19929;-64
2023/02/01 00:29:21;;;;;;;;;;;;;;;1.20;65.54;94712.94;4106238;28;19929;-62
2023/02/01 00:31:23;;;;;;;;;;;;;;;1.33;65.64;94710.38;4107540;28;19926;-61
2023/02/01 00:33:24;;;;;;;;;;;;;;;1.37;65.61;94704.09;4110025;28;19932;-63
2023/02/01 00:35:26;;;;;;;;;;;;;;;1.34;65.16;94704.31;4110221;28;19922;-62
2023/02/01 00:37:30;;;;;;;;;;;;;;;1.21;65.00;94709.44;4107216;28;19922;-64
2023/02/01 00:39:31;;;;;;;;;;;;;;;1.15;65.43;94700.34;4113197;28;19932;-59
2023/02/01 00:41:33;;;;;;;;;;;;;;;1.10;65.57;94692.09;4115805;28;19922;-62
2023/02/01 00:43:35;;;;;;;;;;;;;;;1.19;65.32;94706.16;4113523;28;19929;-62
2023/02/01 00:45:36;;;;;;;;;;;;;;;1.18;64.47;94701.91;4107388;28;19922;-61
2023/02/01 00:47:38;;;;;;;;;;;;;;;1.14;64.43;94705.59;4109236;28;19941;-62
2023/02/01 00:49:39;;;;;;;;;;;;;;;1.06;64.51;94693.22;4115259;28;19929;-62
2023/02/01 00:51:41;;;;;;;;;;;;;;;1.04;64.21;94694.28;4115176;28;19965;-61
2023/02/01 00:53:42;;;;;;;;;;;;;;;1.01;64.00;94688.38;4108747;28;19932;-60
2023/02/01 00:55:45;;;;;;;;;;;;;;;1.06;64.12;94689.84;4110086;28;19973;-61
2023/02/01 00:57:46;;;;;;;;;;;;;;;1.00;63.70;94688.47;4109985;28;20371;-61
2023/02/01 00:59:48;;;;;;;;;;;;;;;1.04;64.09;94689.09;4108149;28;20524;-62
2023/02/01 01:01:49;;;;;;;;;;;;;;;1.09;63.83;94690.44;4108115;28;19923;-61
2023/02/01 01:03:52;;;;;;;;;;;;;;;1.13;63.62;94693.66;4112771;28;19965;-63
2023/02/01 01:05:56;;;;;;;;;;;;;;;1.12;63.89;94692.84;4115201;28;20352;-61
2023/02/01 01:07:57;;;;;;;;;;;;;;;1.10;63.33;94689.53;4108434;28;19973;-60
2023/02/01 01:09:59;;;;;;;;;;;;;;;1.06;63.69;94682.91;4112997;28;19961;-62
2023/02/01 01:12:02;;;;;;;;;;;;;;;1.05;63.97;94688.16;4114609;28;19921;-59
2023/02/01 01:14:04;;;;;;;;;;;;;;;1.05;63.92;94690.75;4113396;28;20392;-60
2023/02/01 01:16:06;;;;;;;;;;;;;;;1.13;63.54;94686.72;4115310;28;19976;-62
2023/02/01 01:18:08;;;;;;;;;;;;;;;1.14;63.31;94678.06;4115115;28;19922;-61
2023/02/01 01:20:10;;;;;;;;;;;;;;;1.13;63.07;94684.16;4114909;28;20415;-62
2023/02/01 01:22:11;;;;;;;;;;;;;;;1.13;62.46;94683.31;4113376;28;20029;-62
2023/02/01 01:24:13;;;;;;;;;;;;;;;1.07;62.38;94676.81;4130691;28;19921;-63
2023/02/01 01:26:16;;;;;;;;;;;;;;;1.09;61.60;94687.03;4143560;28;20372;-64
2023/02/01 01:28:18;;;;;;;;;;;;;;;1.08;62.12;94673.31;4126212;28;20518;-64
2023/02/01 01:30:19;;;;;;;;;;;;;;;1.07;61.76;94676.00;4146115;28;19971;-62
2023/02/01 01:32:21;;;;;;;;;;;;;;;1.00;62.01;94676.41;4146907;28;19929;-63
2023/02/01 01:34:23;;;;;;;;;;;;;;;1.08;61.66;94680.25;4147023;28;20286;-62
2023/02/01 01:36:25;;;;;;;;;;;;;;;0.99;61.44;94687.66;4138257;28;19925;-62
2023/02/01 01:38:26;;;;;;;;;;;;;;;1.04;60.91;94686.53;4142132;28;20119;-62
2023/02/01 01:40:28;;;;;;;;;;;;;;;1.02;60.98;94700.34;4140570;28;19921;-63
2023/02/01 01:42:29;;;;;;;;;;;;;;;1.04;61.01;94702.00;4127950;28;19922;-61
2023/02/01 01:44:49;;;;;;;;;;;;;;;1.08;61.29;94708.63;4145094;28;19932;-62
2023/02/01 01:46:51;;;;;;;;;;;;;;;0.92;60.96;94703.63;4147021;28;20344;-64
2023/02/01 01:49:09;;;;;;;;;;;;;;;0.94;61.02;94701.78;4129679;28;19925;-61
2023/02/01 01:51:10;;;;;;;;;;;;;;;0.85;61.05;94702.38;4129726;28;19926;-62
2023/02/01 01:53:12;;;;;;;;;;;;;;;0.84;61.08;94690.41;4136382;28;19975;-63
2023/02/01 01:55:14;;;;;;;;;;;;;;;0.79;61.18;94699.25;4136298;28;20098;-63
2023/02/01 01:57:20;;;;;;;;;;;;;;;0.76;61.77;94698.66;4130721;28;20450;-64
2023/02/01 01:59:22;;;;;;;;;;;;;;;0.73;61.75;94698.84;4145218;28;19983;-62
2023/02/01 02:01:24;;;;;;;;;;;;;;;0.71;61.59;94693.81;4145274;28;19927;-61
2023/02/01 02:03:27;;;;;;;;;;;;;;;0.64;62.11;94694.28;4146079;28;19921;-63
2023/02/01 02:05:29;;;;;;;;;;;;;;;0.58;62.29;94690.34;4138231;28;19922;-62
2023/02/01 02:07:32;;;;;;;;;;;;;;;0.59;62.11;94690.25;4123227;28;19921;-62
2023/02/01 02:09:33;;;;;;;;;;;;;;;0.56;62.67;94693.03;4128666;28;19965;-63
2023/02/01 02:11:35;;;;;;;;;;;;;;;0.50;62.59;94701.16;4146319;28;20288;-63
2023/02/01 02:13:38;;;;;;;;;;;;;;;0.43;62.72;94691.31;4137172;28;19976;-62
2023/02/01 02:15:42;;;;;;;;;;;;;;;0.40;62.93;94687.19;4130434;28;19922;-64
2023/02/01 02:17:46;;;;;;;;;;;;;;;0.42;63.01;94684.53;4144687;28;19922;-62
2023/02/01 02:20:00;;;;;;;;;;;;;;;0.46;62.47;94691.97;4141154;28;19972;-61
2023/02/01 02:22:04;;;;;;;;;;;;;;;0.49;62.06;94686.59;4140671;28;19968;-62
2023/02/01 02:24:11;;;;;;;;;;;;;;;0.50;62.09;94690.03;4146200;28;20367;-63
2023/02/01 02:26:15;;;;;;;;;;;;;;;0.47;61.68;94693.59;4145308;28;20549;-62
2023/02/01 02:28:29;;;;;;;;;;;;;;;0.58;62.00;94692.91;4145370;28;19921;-63
2023/02/01 02:30:49;;;;;;;;;;;;;;;0.53;61.89;94682.09;4146348;28;19922;-65
2023/02/01 02:33:01;;;;;;;;;;;;;;;0.54;62.10;94688.91;4139220;28;20098;-63
2023/02/01 02:35:12;;;;;;;;;;;;;;;0.55;61.81;94693.13;4140951;28;19975;-62
2023/02/01 02:37:26;;;;;;;;;;;;;;;0.53;62.10;94689.81;4144345;28;19922;-62
2023/02/01 02:39:40;;;;;;;;;;;;;;;0.50;61.78;94700.34;4134874;28;19922;-62
2023/02/01 02:47:26;;;;;;;;;;;;;;;0.42;62.70;94695.66;4145374;28;19925;-63
2023/02/01 02:49:29;;;;;;;;;;;;;;;0.42;62.02;94695.66;4144965;28;19925;-61
2023/02/01 03:05:46;;;;;;;;;;;;;;;0.48;61.18;94689.31;4136465;28;19965;-61
2023/02/01 03:08:00;;;;;;;;;;;;;;;0.48;60.91;94692.69;4130014;28;19921;-63
2023/02/01 03:10:05;;;;;;;;;;;;;;;0.43;60.91;94696.47;4146085;28;19932;-63
2023/02/01 03:14:29;;;;;;;;;;;;;;;0.56;60.34;94713.66;4129982;28;20272;-62
2023/02/01 03:16:36;;;;;;;;;;;;;;;0.58;60.30;94710.97;4140467;28;20307;-62
2023/02/01 03:18:57;;;;;;;;;;;;;;;0.61;60.77;94713.34;4141386;28;19980;-62
2023/02/01 03:20:58;;;;;;;;;;;;;;;0.58;60.69;94710.97;4134364;28;20256;-63
2023/02/01 03:23:00;;;;;;;;;;;;;;;0.64;60.21;94712.31;4137882;28;20383;-62
2023/02/01 03:25:03;;;;;;;;;;;;;;;0.63;60.36;94711.50;4147861;28;20343;-64
2023/02/01 03:27:10;;;;;;;;;;;;;;;0.60;60.12;94719.44;4147351;28;19957;-63
2023/02/01 03:29:13;;;;;;;;;;;;;;;0.63;60.35;94713.28;4147828;28;19968;-65
2023/02/01 03:31:14;;;;;;;;;;;;;;;0.58;60.55;94709.22;4149012;28;19922;-63
2023/02/01 03:33:20;;;;;;;;;;;;;;;0.55;60.72;94724.88;4131561;28;19972;-61
2023/02/01 03:35:27;;;;;;;;;;;;;;;0.64;60.66;94713.16;4147622;28;19933;-63
2023/02/01 03:37:28;;;;;;;;;;;;;;;0.64;60.89;94710.56;4148340;28;19979;-63
2023/02/01 03:39:35;;;;;;;;;;;;;;;0.63;60.26;94714.09;4148615;28;20279;-62
2023/02/01 03:41:38;;;;;;;;;;;;;;;0.64;60.80;94705.41;4148748;28;20021;-64
2023/02/01 03:43:55;;;;;;;;;;;;;;;0.66;60.72;94708.72;4146625;28;19956;-63
2023/02/01 03:45:58;;;;;;;;;;;;;;;0.72;60.17;94707.50;4148584;28;19929;-62
2023/02/01 03:48:00;;;;;;;;;;;;;;;0.64;60.47;94714.91;4147482;28;19922;-63
2023/02/01 03:50:02;;;;;;;;;;;;;;;0.74;60.29;94710.81;4146883;28;19975;-63
2023/02/01 03:52:05;;;;;;;;;;;;;;;0.72;60.89;94705.75;4131181;28;19929;-61
2023/02/01 03:54:07;;;;;;;;;;;;;;;0.77;60.72;94702.88;4130836;28;19929;-63
2023/02/01 03:56:11;;;;;;;;;;;;;;;0.77;60.57;94711.44;4147195;28;19921;-64
2023/02/01 03:58:13;;;;;;;;;;;;;;;0.75;60.06;94710.72;4146658;28;19972;-64
2023/02/01 04:00:16;;;;;;;;;;;;;;;0.74;60.72;94713.41;4147020;28;19928;-63
2023/02/01 04:02:17;;;;;;;;;;;;;;;0.86;60.12;94709.19;4147669;28;19922;-63
2023/02/01 04:04:22;;;;;;;;;;;;;;;0.84;60.45;94721.34;4148330;28;19925;-62
2023/02/01 04:06:23;;;;;;;;;;;;;;;0.76;60.96;94725.25;4130411;28;19940;-60
2023/02/01 04:08:25;;;;;;;;;;;;;;;0.79;61.31;94709.56;4148037;28;19925;-64
2023/02/01 04:10:27;;;;;;;;;;;;;;;0.86;60.83;94719.50;4148377;28;20015;-61
2023/02/01 04:12:28;;;;;;;;;;;;;;;0.84;61.15;94709.31;4145250;28;19956;-60
2023/02/01 04:14:30;;;;;;;;;;;;;;;0.90;60.89;94710.63;4145304;28;19921;-62
2023/02/01 04:16:32;;;;;;;;;;;;;;;0.90;61.56;94705.47;4136886;28;19952;-60
2023/02/01 04:18:33;;;;;;;;;;;;;;;0.85;61.58;94710.13;4148236;28;20379;-60
2023/02/01 04:20:35;;;;;;;;;;;;;;;0.87;61.97;94721.16;4148106;28;20433;-60
2023/02/01 04:22:36;;;;;;;;;;;;;;;0.84;61.83;94724.78;4147308;28;19972;-63
2023/02/01 04:24:38;;;;;;;;;;;;;;;0.80;62.18;94716.41;4148038;28;19925;-62
2023/02/01 04:26:39;;;;;;;;;;;;;;;0.85;62.48;94716.09;4148013;28;19972;-62
2023/02/01 04:28:41;;;;;;;;;;;;;;;0.89;62.39;94717.56;4134099;28;20296;-63
2023/02/01 04:30:42;;;;;;;;;;;;;;;0.98;62.33;94722.09;4147471;28;19983;-66
2023/02/01 04:32:44;;;;;;;;;;;;;;;1.01;62.12;94715.91;4140657;28;19922;-63
2023/02/01 04:35:04;;;;;;;;;;;;;;;1.02;62.07;94708.09;4123918;28;19969;-64
2023/02/01 04:37:06;;;;;;;;;;;;;;;0.93;62.47;94710.44;4146326;28;19928;-64
2023/02/01 04:39:08;;;;;;;;;;;;;;;1.02;63.09;94717.56;4129214;28;20364;-63
2023/02/01 04:41:10;;;;;;;;;;;;;;;0.99;62.64;94718.63;4141284;28;20445;-63
2023/02/01 04:43:11;;;;;;;;;;;;;;;0.99;62.82;94721.19;4140570;28;20021;-60
2023/02/01 04:45:13;;;;;;;;;;;;;;;1.03;63.26;94726.97;4146895;28;20017;-62
2023/02/01 04:47:15;;;;;;;;;;;;;;;1.01;63.22;94729.66;4147778;28;20000;-62
2023/02/01 04:49:17;;;;;;;;;;;;;;;1.01;63.60;94726.22;4146293;28;20366;-61
2023/02/01 04:51:18;;;;;;;;;;;;;;;1.03;63.29;94726.97;4142092;28;19921;-63
2023/02/01 04:53:20;;;;;;;;;;;;;;;0.87;63.69;94734.06;4134284;28;19936;-63
2023/02/01 04:55:21;;;;;;;;;;;;;;;0.89;63.92;94733.03;4134261;28;19959;-63
2023/02/01 04:57:23;;;;;;;;;;;;;;;0.88;64.01;94731.34;4138521;28;20013;-63
2023/02/01 04:59:24;;;;;;;;;;;;;;;0.88;64.03;94738.28;4131182;28;20373;-64
2023/02/01 05:01:26;;;;;;;;;;;;;;;0.94;64.40;94738.69;4133137;28;20352;-65
2023/02/01 05:03:28;;;;;;;;;;;;;;;1.03;63.97;94739.84;4143444;28;19929;-63
2023/02/01 05:05:29;;;;;;;;;;;;;;;1.05;64.10;94737.19;4132521;28;19925;-61
2023/02/01 05:07:31;;;;;;;;;;;;;;;1.08;64.34;94745.56;4128671;28;19921;-63
2023/02/01 05:09:32;;;;;;;;;;;;;;;1.15;63.74;94741.63;4133439;28;19921;-63
2023/02/01 05:13:54;;;;;;;;;;;;;;;1.08;64.12;94750.72;4123954;28;19930;-64
2023/02/01 05:15:55;;;;;;;;;;;;;;;1.14;64.17;94754.63;4143450;28;19921;-63
2023/02/01 05:17:57;;;;;;;;;;;;;;;1.13;64.40;94758.97;4147281;28;20387;-61
2023/02/01 05:19:58;;;;;;;;;;;;;;;1.08;64.45;94755.88;4141525;28;19922;-63
2023/02/01 05:22:00;;;;;;;;;;;;;;;1.17;63.99;94757.84;4140786;28;20311;-62
2023/02/01 05:24:12;;;;;;;;;;;;;;;1.19;64.13;94748.25;4145954;28;19922;-61
2023/02/01 05:26:14;;;;;;;;;;;;;;;1.21;64.28;94750.75;4136402;28;19957;-62
2023/02/01 05:28:16;;;;;;;;;;;;;;;1.19;63.91;94748.25;4128982;28;20521;-64
2023/02/01 05:30:17;;;;;;;;;;;;;;;1.13;64.29;94753.81;4141871;28;19921;-63
2023/02/01 05:32:19;;;;;;;;;;;;;;;1.14;64.31;94750.31;4128645;28;20020;-66
2023/02/01 05:34:23;;;;;;;;;;;;;;;1.15;64.34;94761.47;4146982;28;19929;-65
2023/02/01 05:36:24;;;;;;;;;;;;;;;1.20;64.68;94760.22;4146629;28;19925;-64
2023/02/01 05:38:26;;;;;;;;;;;;;;;1.20;64.22;94755.06;4136756;28;20442;-62
2023/02/01 05:40:27;;;;;;;;;;;;;;;1.20;64.34;94749.06;4143639;28;20304;-64
2023/02/01 05:42:29;;;;;;;;;;;;;;;1.21;64.29;94746.41;4141900;28;20189;-65
2023/02/01 05:44:30;;;;;;;;;;;;;;;1.21;64.14;94745.59;4137689;28;19926;-63
2023/02/01 05:46:32;;;;;;;;;;;;;;;1.30;64.27;94760.44;4146532;28;19921;-63
2023/02/01 05:48:34;;;;;;;;;;;;;;;1.36;63.80;94754.06;4133784;28;20017;-62
2023/02/01 05:50:35;;;;;;;;;;;;;;;1.31;63.60;94753.53;4145911;28;19995;-64
2023/02/01 05:52:37;;;;;;;;;;;;;;;1.35;63.66;94753.22;4146706;28;19921;-64
2023/02/01 05:54:38;;;;;;;;;;;;;;;1.33;63.25;94751.66;4145958;28;19926;-61
2023/02/01 05:56:40;;;;;;;;;;;;;;;1.36;63.52;94748.91;4145340;28;19953;-63
2023/02/01 05:58:42;;;;;;;;;;;;;;;1.35;62.88;94758.38;4145847;28;19921;-65
2023/02/01 06:00:43;;;;;;;;;;;;;;;1.41;62.90;94746.84;4145878;28;20043;-67
2023/02/01 06:02:45;;;;;;;;;;;;;;;1.41;62.87;94752.00;4145464;28;20021;-63
2023/02/01 06:04:46;;;;;;;;;;;;;;;1.47;62.63;94751.59;4145243;28;20412;-64
2023/02/01 06:06:50;;;;;;;;;;;;;;;1.51;62.45;94760.78;4145169;28;20013;-61
2023/02/01 06:08:51;;;;;;;;;;;;;;;1.49;62.68;94754.91;4146127;28;19925;-64
2023/02/01 06:10:59;;;;;;;;;;;;;;;1.54;62.19;94750.25;4145519;28;19936;-64
2023/02/01 06:13:02;;;;;;;;;;;;;;;1.42;62.36;94774.31;4145697;28;19921;-64
2023/02/01 06:15:04;;;;;;;;;;;;;;;1.50;62.61;94755.72;4145329;28;19929;-64
2023/02/01 06:17:06;;;;;;;;;;;;;;;1.49;62.34;94748.91;4146780;28;20023;-64
2023/02/01 06:19:08;;;;;;;;;;;;;;;1.56;62.05;94761.28;4146450;28;19925;-63
2023/02/01 06:21:10;;;;;;;;;;;;;;;1.57;62.19;94755.22;4146662;28;19972;-64
2023/02/01 06:23:11;;;;;;;;;;;;;;;1.56;61.91;94761.28;4146392;28;20380;-64
2023/02/01 06:25:13;;;;;;;;;;;;;;;1.68;61.69;94764.81;4145268;28;19922;-64
2023/02/01 06:27:15;;;;;;;;;;;;;;;1.70;61.36;94754.38;4144535;28;19949;-63
2023/02/01 06:29:16;;;;;;;;;;;;;;;1.70;61.68;94762.09;4146540;28;19925;-65
2023/02/01 06:31:18;;;;;;;;;;;;;;;1.64;61.29;94760.78;4145776;28;20367;-64
2023/02/01 06:33:19;;;;;;;;;;;;;;;1.80;61.72;94756.22;4145663;28;20376;-68
2023/02/01 06:35:21;;;;;;;;;;;;;;;1.83;61.04;94757.78;4146414;28;20459;-64
2023/02/01 06:37:24;;;;;;;;;;;;;;;1.82;60.95;94761.28;4143239;28;19922;-65
2023/02/01 06:39:27;;;;;;;;;;;;;;;1.84;61.20;94762.00;4146255;28;19956;-64
2023/02/01 06:41:28;;;;;;;;;;;;;;;1.78;61.05;94770.16;4146107;28;19986;-64
2023/02/01 06:43:30;;;;;;;;;;;;;;;1.80;60.70;94771.72;4143977;28;19968;-65
2023/02/01 06:45:31;;;;;;;;;;;;;;;1.88;60.86;94770.38;4144351;28;19921;-64
2023/02/01 06:47:33;;;;;;;;;;;;;;;1.83;60.74;94771.53;4145780;28;20021;-63
2023/02/01 06:49:35;;;;;;;;;;;;;;;1.80;60.93;94770.91;4144992;28;19921;-64
2023/02/01 06:51:36;;;;;;;;;;;;;;;1.84;60.84;94775.75;4129239;28;20009;-62
2023/02/01 06:53:37;;;;;;;;;;;;;;;1.78;60.86;94783.91;4147768;28;19972;-63
2023/02/01 06:55:39;;;;;;;;;;;;;;;1.80;60.87;94794.13;4148101;28;20371;-62
2023/02/01 06:57:40;;;;;;;;;;;;;;;1.81;60.67;94782.91;4149073;28;19966;-64
2023/02/01 06:59:42;;;;;;;;;;;;;;;1.79;60.86;94792.50;4146905;28;19939;-64
2023/02/01 07:01:44;;;;;;;;;;;;;;;1.83;60.66;94792.19;4147959;28;20390;-64
2023/02/01 07:03:49;;;;;;;;;;;;;;;1.83;60.88;94809.44;4147751;28;19991;-64
2023/02/01 07:05:58;;;;;;;;;;;;;;;1.86;60.25;94805.81;4146118;28;19921;-66
2023/02/01 07:07:59;;;;;;;;;;;;;;;1.93;60.28;94809.63;4146624;28;19921;-64
2023/02/01 07:10:01;;;;;;;;;;;;;;;1.93;60.19;94810.47;4147460;28;19976;-64
2023/02/01 07:12:02;;;;;;;;;;;;;;;1.89;60.05;94814.19;4146954;28;20336;-66
2023/02/01 07:14:04;;;;;;;;;;;;;;;1.86;60.06;94818.75;4148871;28;19925;-64
2023/02/01 07:16:07;;;;;;;;;;;;;;;1.91;60.06;94811.50;4145389;28;20008;-64
2023/02/01 07:18:08;;;;;;;;;;;;;;;1.87;60.29;94810.88;4149377;28;19921;-67
2023/02/01 07:20:10;;;;;;;;;;;;;;;1.94;60.03;94825.03;4141025;28;19922;-64
2023/02/01 07:22:11;;;;;;;;;;;;;;;1.91;60.17;94821.84;4145089;28;19968;-66
2023/02/01 07:24:14;;;;;;;;;;;;;;;1.90;60.46;94820.19;4147184;28;20004;-63
2023/02/01 07:26:16;;;;;;;;;;;;;;;1.98;60.11;94828.22;4138692;28;19929;-65
2023/02/01 07:28:18;;;;;;;;;;;;;;;2.02;59.88;94819.34;4149168;28;20003;-64
2023/02/01 07:30:19;;;;;;;;;;;;;;;2.05;60.00;94819.97;4135798;28;20004;-64
2023/02/01 07:32:21;;;;;;;;;;;;;;;2.10;59.78;94822.25;4130200;28;20049;-64
2023/02/01 07:34:23;;;;;;;;;;;;;;;2.01;59.60;94826.28;4133222;28;20007;-64
2023/02/01 07:36:24;;;;;;;;;;;;;;;2.06;59.62;94823.38;4142801;28;20566;-64
2023/02/01 07:38:26;;;;;;;;;;;;;;;2.15;59.21;94822.78;4148796;28;19995;-64
2023/02/01 07:40:29;;;;;;;;;;;;;;;2.11;59.50;94844.59;4148764;28;19922;-65
2023/02/01 07:42:30;;;;;;;;;;;;;;;2.13;59.46;94826.38;4148146;28;19925;-64
2023/02/01 07:44:32;;;;;;;;;;;;;;;2.14;59.27;94828.03;4149229;28;19932;-64
2023/02/01 07:46:33;;;;;;;;;;;;;;;2.16;59.46;94827.00;4148013;28;20441;-64
2023/02/01 07:48:35;;;;;;;;;;;;;;;2.19;59.38;94841.47;4148849;28;19925;-62
2023/02/01 07:50:36;;;;;;;;;;;;;;;2.27;58.76;94834.00;4149061;28;19929;-64
2023/02/01 07:52:38;;;;;;;;;;;;;;;2.28;58.96;94825.34;4140126;28;20008;-65
2023/02/01 07:54:39;;;;;;;;;;;;;;;2.31;58.68;94839.81;4132435;28;20021;-65
2023/02/01 07:56:41;;;;;;;;;;;;;;;2.31;58.61;94835.47;4147802;28;19980;-64
2023/02/01 07:58:42;;;;;;;;;;;;;;;2.34;58.64;94837.81;4148037;28;19948;-65
2023/02/01 08:03:04;;;;;;;;;;;;;;;2.38;58.50;94847.00;4147739;28;19932;-63
2023/02/01 08:05:06;;;;;;;;;;;;;;;2.43;58.18;94850.13;4148539;28;19921;-63
2023/02/01 08:07:08;;;;;;;;;;;;;;;2.40;57.91;94850.31;4147619;28;19928;-65
2023/02/01 08:09:10;;;;;;;;;;;;;;;2.44;57.89;94862.13;4148548;28;20052;-64
2023/02/01 08:11:12;;;;;;;;;;;;;;;2.34;57.51;94853.31;4146344;28;20012;-66
2023/02/01 08:13:14;;;;;;;;;;;;;;;2.41;57.53;94852.00;4147796;28;19921;-66
2023/02/01 08:15:15;;;;;;;;;;;;;;;2.42;57.63;94842.47;4130161;28;19968;-64
2023/02/01 08:17:17;;;;;;;;;;;;;;;2.55;57.39;94837.28;4142980;28;20313;-65
2023/02/01 08:19:19;;;;;;;;;;;;;;;2.60;57.25;94848.97;4135467;28;19926;-64
2023/02/01 08:21:21;;;;;;;;;;;;;;;2.67;57.05;94846.78;4148132;28;19952;-64
2023/02/01 08:23:23;;;;;;;;;;;;;;;2.76;56.65;94840.94;4147465;28;19928;-65
2023/02/01 08:25:24;;;;;;;;;;;;;;;2.72;56.72;94849.03;4147804;28;19926;-65
2023/02/01 08:27:27;;;;;;;;;;;;;;;2.83;56.48;94857.69;4145904;28;19937;-65
2023/02/01 08:29:28;;;;;;;;;;;;;;;2.82;56.23;94848.28;4147119;28;19943;-66
2023/02/01 08:31:30;;;;;;;;;;;;;;;2.80;56.59;94847.56;4146109;28;20193;-64
2023/02/01 08:33:31;;;;;;;;;;;;;;;2.82;56.39;94843.09;4147577;28;19921;-63
2023/02/01 08:35:36;;;;;;;;;;;;;;;2.87;56.34;94856.53;4146981;28;19979;-64
2023/02/01 08:37:44;;;;;;;;;;;;;;;2.92;55.98;94845.84;4136761;28;20371;-64
2023/02/01 08:39:46;;;;;;;;;;;;;;;2.95;55.90;94845.66;4139993;28;19922;-65
2023/02/01 08:42:50;;;;;;;;;;;;;;;2.99;56.13;94848.81;4143325;28;19925;-64
2023/02/01 08:44:09;;;;;;;;;;;;;;;2.91;55.58;94831.28;4147373;28;19921;-63
2023/02/01 08:46:11;;;;;;;;;;;;;;;2.88;55.50;94836.66;4147187;28;20245;-64
2023/02/01 08:48:13;;;;;;;;;;;;;;;2.98;55.11;94844.59;4146570;28;19972;-64
2023/02/01 08:50:14;;;;;;;;;;;;;;;3.12;54.87;94839.28;4147686;28;19925;-65
2023/02/01 08:52:16;;;;;;;;;;;;;;;3.16;54.92;94845.03;4148176;28;19921;-65
2023/02/01 08:54:17;;;;;;;;;;;;;;;3.16;54.56;94834.69;4148187;28;20268;-65
2023/02/01 08:56:19;;;;;;;;;;;;;;;3.15;54.41;94839.03;4130692;28;19921;-65
2023/02/01 08:58:21;;;;;;;;;;;;;;;3.15;54.63;94839.03;4147086;28;21332;-67
2023/02/01 09:00:23;;;;;;;;;;;;;;;3.18;54.45;94843.97;4147238;28;20418;-65
2023/02/01 09:02:25;;;;;;;;;;;;;;;3.16;55.41;94845.03;4147352;28;19930;-65
2023/02/01 09:04:26;;;;;;;;;;;;;;;3.13;56.04;94835.72;4134840;28;19933;-64
2023/02/01 09:06:28;;;;;;;;;;;;;;;3.24;55.37;94838.38;4138877;28;19991;-61
2023/02/01 09:08:29;;;;;;;;;;;;;;;3.40;55.00;94834.66;4139563;28;19922;-64
2023/02/01 09:10:31;;;;;;;;;;;;;;;3.58;54.58;94842.84;4141388;28;20044;-64
2023/02/01 09:12:36;;;;;;;;;;;;;;;3.80;53.77;94862.81;4145484;28;19921;-64
2023/02/01 09:14:37;;;;;;;;;;;;;;;3.83;53.79;94836.66;4146531;28;20546;-64
2023/02/01 09:16:39;;;;;;;;;;;;;;;3.92;54.09;94853.31;4146207;28;20385;-61
2023/02/01 09:18:40;;;;;;;;;;;;;;;3.92;53.39;94845.53;4138366;28;19921;-62
2023/02/01 09:21:05;;;;;;;;;;;;;;;3.94;53.36;94843.66;4144480;28;19927;-64
2023/02/01 09:23:07;;;;;;;;;;;;;;;3.99;53.84;94852.72;4137472;28;19921;-65
2023/02/01 09:25:08;;;;;;;;;;;;;;;3.92;53.90;94843.78;4147332;28;20020;-64
2023/02/01 09:27:10;;;;;;;;;;;;;;;4.13;53.32;94840.47;4146420;28;19953;-66
2023/02/01 09:29:12;;;;;;;;;;;;;;;4.42;52.24;94839.09;4145867;28;19921;-65
2023/02/01 09:31:13;;;;;;;;;;;;;;;4.45;52.12;94832.84;4146894;28;19951;-66
2023/02/01 09:33:17;;;;;;;;;;;;;;;4.55;52.07;94838.97;4147479;28;19930;-65
2023/02/01 09:35:18;;;;;;;;;;;;;;;4.34;51.83;94836.25;4147239;28;19928;-64
2023/02/01 09:37:20;;;;;;;;;;;;;;;4.42;52.58;94827.91;4147126;28;19975;-64
2023/02/01 09:39:22;;;;;;;;;;;;;;;4.54;52.15;94826.97;4142377;28;20331;-63
2023/02/01 09:41:26;;;;;;;;;;;;;;;4.49;51.46;94834.25;4138958;28;19925;-63
2023/02/01 09:43:28;;;;;;;;;;;;;;;4.49;51.02;94829.88;4146407;28;19932;-64
2023/02/01 09:45:42;;;;;;;;;;;;;;;4.73;51.28;94815.94;4144373;28;19930;-65
2023/02/01 09:47:47;;;;;;;;;;;;;;;4.92;51.24;94821.31;4138063;28;19926;-64
2023/02/01 09:49:51;;;;;;;;;;;;;;;4.96;50.45;94808.13;4135205;28;20451;-65
2023/02/01 09:51:52;;;;;;;;;;;;;;;5.01;49.89;94819.81;4130994;28;20029;-65
2023/02/01 09:54:04;;;;;;;;;;;;;;;5.15;49.39;94805.69;4130790;28;19922;-65
2023/02/01 09:56:07;;;;;;;;;;;;;;;5.07;49.70;94793.31;4124341;28;19984;-66
2023/02/01 09:58:11;;;;;;;;;;;;;;;5.22;48.98;94783.47;4132076;28;20395;-65
2023/02/01 10:00:15;;;;;;;;;;;;;;;5.06;49.39;94783.06;4129075;28;19921;-64
2023/02/01 10:02:26;;;;;;;;;;;;;;;5.10;49.08;94794.88;4130825;28;19940;-64
2023/02/01 10:04:27;;;;;;;;;;;;;;;5.26;48.83;94787.47;4142665;28;19945;-66
2023/02/01 10:06:41;;;;;;;;;;;;;;;5.57;48.49;94797.97;4146377;28;19930;-64
2023/02/01 10:08:51;;;;;;;;;;;;;;;5.68;48.23;94787.50;4146852;28;19947;-66
2023/02/01 10:10:53;;;;;;;;;;;;;;;5.74;47.71;94784.41;4133175;28;19936;-65
2023/02/01 10:13:13;;;;;;;;;;;;;;;5.78;47.83;94794.53;4143772;28;19925;-65
2023/02/01 10:15:15;;;;;;;;;;;;;;;5.47;47.90;94784.91;4144635;28;19925;-67
2023/02/01 10:17:29;;;;;;;;;;;;;;;5.57;47.85;94784.97;4145500;28;19927;-63
2023/02/01 10:19:46;;;;;;;;;;;;;;;5.79;47.92;94785.81;4146301;28;19921;-65
2023/02/01 10:21:52;;;;;;;;;;;;;;;5.81;47.68;94778.69;4147242;28;19921;-63
2023/02/01 10:23:57;;;;;;;;;;;;;;;5.73;47.47;94784.53;4145741;28;19922;-64
2023/02/01 10:26:06;;;;;;;;;;;;;;;5.82;47.33;94773.34;4134821;28;19972;-64
2023/02/01 10:28:09;;;;;;;;;;;;;;;5.89;47.70;94760.66;4150099;28;19921;-65
2023/02/01 10:30:21;;;;;;;;;;;;;;;5.91;47.63;94762.19;4138561;28;19997;-63
2023/02/01 10:32:24;;;;;;;;;;;;;;;6.01;47.67;94767.47;4138452;28;20028;-63
2023/02/01 10:34:27;;;;;;;;;;;;;;;5.97;47.01;94762.66;4152150;28;20053;-63
2023/02/01 10:36:38;;;;;;;;;;;;;;;5.83;46.90;94750.78;4149331;28;19922;-65
2023/02/01 10:38:39;;;;;;;;;;;;;;;5.80;47.29;94753.66;4135052;28;19922;-64
2023/02/01 10:40:41;;;;;;;;;;;;;;;5.74;47.81;94754.97;4151561;28;19929;-65
2023/02/01 10:42:43;;;;;;;;;;;;;;;5.75;47.56;94752.25;4150367;28;20407;-66
2023/02/01 10:44:45;;;;;;;;;;;;;;;5.86;47.05;94759.16;4133837;28;19922;-64
2023/02/01 10:46:46;;;;;;;;;;;;;;;5.87;46.27;94750.41;4135662;28;19922;-64
2023/02/01 10:48:48;;;;;;;;;;;;;;;5.87;46.68;94760.81;4136321;28;20401;-65
2023/02/01 10:51:00;;;;;;;;;;;;;;;5.91;46.69;94766.56;4125233;28;20399;-64
2023/02/01 10:53:04;;;;;;;;;;;;;;;6.03;46.99;94764.75;4152057;28;19944;-63
2023/02/01 10:55:24;;;;;;;;;;;;;;;6.02;46.37;94768.28;4149802;28;19925;-64
2023/02/01 10:57:28;;;;;;;;;;;;;;;5.91;46.45;94756.97;4151305;28;19925;-66
2023/02/01 10:59:32;;;;;;;;;;;;;;;6.09;46.52;94751.22;4151822;28;19940;-66
2023/02/01 11:01:35;;;;;;;;;;;;;;;6.24;46.29;94751.69;4150838;28;20364;-64
2023/02/01 11:03:41;;;;;;;;;;;;;;;6.38;45.99;94753.09;4151948;28;20410;-66
2023/02/01 11:05:45;;;;;;;;;;;;;;;6.29;45.70;94765.13;4151820;28;19928;-66
2023/02/01 11:07:54;;;;;;;;;;;;;;;6.30;46.37;94765.00;4149978;28;19928;-65
2023/02/01 11:09:57;;;;;;;;;;;;;;;6.35;46.39;94765.44;4135091;28;20190;-66
2023/02/01 11:11:59;;;;;;;;;;;;;;;5.98;45.97;94751.28;4150985;28;19960;-65
2023/02/01 11:14:04;;;;;;;;;;;;;;;5.79;46.58;94758.03;4151152;28;20398;-65
2023/02/01 11:16:05;;;;;;;;;;;;;;;5.71;47.30;94763.84;4148539;28;19928;-65
2023/02/01 11:18:18;;;;;;;;;;;;;;;5.69;47.32;94744.97;4151658;28;19928;-64